Time;durP1;ratioP1;P1;durP2;ratioP2;P2;SDS_P1;SDS_P2;PMS_P1;PMS_P2;Temp;Humidity;BMP_temperature;BMP_pressure;BME280_temperature;BME280_humidity;BME280_pressure;Samples;Min_cycle;Max_cycle;Signal;HPM_P1;HPM_P2
2021/03/13 00:02:15;;;;;;;16.33;3.83;;;;;;;7.51;72.57;98248.25;5036354;28;20061;-87
2021/03/13 00:04:41;;;;;;;11.85;3.72;;;;;;;7.50;72.27;98248.34;5035916;28;20427;-86
2021/03/13 00:07:07;;;;;;;7.07;3.30;;;;;;;7.49;72.74;98249.31;5035000;28;20049;-86
2021/03/13 00:09:33;;;;;;;12.43;3.58;;;;;;;7.48;72.61;98237.16;5034792;28;20500;-86
2021/03/13 00:11:59;;;;;;;15.13;4.35;;;;;;;7.47;72.35;98236.31;5034926;28;20049;-86
2021/03/13 00:14:25;;;;;;;14.85;4.20;;;;;;;7.47;72.73;98230.25;5035829;28;20057;-87
2021/03/13 00:16:51;;;;;;;12.23;3.30;;;;;;;7.46;72.54;98236.41;5034971;28;20388;-86
2021/03/13 00:19:20;;;;;;;15.63;3.67;;;;;;;7.45;72.42;98221.66;5034735;28;20076;-86
2021/03/13 00:21:46;;;;;;;10.52;3.25;;;;;;;7.43;72.32;98222.63;5034871;28;20053;-86
2021/03/13 00:24:12;;;;;;;15.75;3.30;;;;;;;7.45;72.27;98225.13;5034559;28;20053;-86
2021/03/13 00:26:38;;;;;;;11.52;3.22;;;;;;;7.45;72.26;98232.13;5034800;28;20068;-86
2021/03/13 00:29:04;;;;;;;8.40;2.90;;;;;;;7.48;72.62;98224.06;5034696;28;20045;-86
2021/03/13 00:31:30;;;;;;;13.85;3.35;;;;;;;7.46;72.42;98218.09;5034875;28;20404;-86
2021/03/13 00:33:57;;;;;;;9.77;3.22;;;;;;;7.48;72.25;98221.47;5034782;28;20053;-86
2021/03/13 00:36:23;;;;;;;8.38;3.10;;;;;;;7.50;72.27;98209.09;5034389;28;20403;-86
2021/03/13 00:38:49;;;;;;;8.25;3.33;;;;;;;7.50;72.15;98222.16;5034288;28;20054;-86
2021/03/13 00:41:15;;;;;;;8.60;2.90;;;;;;;7.52;72.23;98209.84;5035553;28;20045;-86
2021/03/13 00:43:41;;;;;;;9.02;2.90;;;;;;;7.53;72.09;98214.13;5035230;28;20511;-87
2021/03/13 00:46:07;;;;;;;10.30;2.95;;;;;;;7.56;72.37;98219.16;5035514;28;20045;-86
2021/03/13 00:48:33;;;;;;;13.98;3.42;;;;;;;7.58;72.69;98213.81;5035644;28;20093;-86
2021/03/13 00:51:00;;;;;;;11.02;3.72;;;;;;;7.58;72.30;98225.09;5034118;28;20041;-86
2021/03/13 00:53:26;;;;;;;8.65;3.75;;;;;;;7.60;72.28;98193.56;5035018;28;20056;-86
2021/03/13 00:55:52;;;;;;;10.25;2.60;;;;;;;7.61;72.01;98201.31;5034039;28;20443;-86
2021/03/13 00:58:19;;;;;;;8.93;2.55;;;;;;;7.61;72.20;98196.09;5034133;28;20049;-86
2021/03/13 01:00:45;;;;;;;12.93;3.53;;;;;;;7.60;71.90;98190.97;5034052;28;20049;-86
2021/03/13 01:03:11;;;;;;;10.75;3.10;;;;;;;7.60;71.92;98189.19;5034077;28;20049;-86
2021/03/13 01:05:37;;;;;;;10.52;2.35;;;;;;;7.60;71.80;98183.94;5034997;28;20052;-86
2021/03/13 01:08:06;;;;;;;10.38;3.40;;;;;;;7.60;71.86;98181.34;5033772;28;20103;-86
2021/03/13 01:10:47;;;;;;;10.65;2.78;;;;;;;7.62;72.26;98181.22;5034196;28;20099;-86
2021/03/13 01:13:13;;;;;;;8.05;2.35;;;;;;;7.62;71.85;98166.34;5035136;28;20507;-86
2021/03/13 01:15:40;;;;;;;6.70;2.33;;;;;;;7.63;72.39;98172.41;5033717;28;20049;-87
2021/03/13 01:18:06;;;;;;;13.85;3.05;;;;;;;7.64;72.12;98163.59;5033377;28;20045;-86
2021/03/13 01:20:34;;;;;;;8.23;2.30;;;;;;;7.64;72.30;98158.38;5033675;28;20049;-86
2021/03/13 01:23:00;;;;;;;8.57;2.60;;;;;;;7.66;72.09;98151.22;5033732;28;20147;-86
2021/03/13 01:25:26;;;;;;;7.40;2.55;;;;;;;7.65;72.17;98147.78;5034448;28;20050;-86
2021/03/13 01:27:52;;;;;;;13.60;3.20;;;;;;;7.66;72.11;98152.06;5034737;28;20072;-86
2021/03/13 01:30:21;;;;;;;10.57;2.92;;;;;;;7.64;71.77;98153.97;5034338;28;20056;-86
2021/03/13 01:32:48;;;;;;;10.68;2.55;;;;;;;7.66;71.85;98140.75;5033172;28;20057;-86
2021/03/13 01:35:15;;;;;;;12.68;3.20;;;;;;;7.67;71.91;98117.09;5034389;28;20053;-86
2021/03/13 01:37:41;;;;;;;9.82;2.75;;;;;;;7.68;71.89;98128.41;5033395;28;20045;-86
2021/03/13 01:40:10;;;;;;;10.70;2.65;;;;;;;7.64;71.51;98125.19;5033596;28;20049;-86
2021/03/13 01:42:38;;;;;;;7.10;2.58;;;;;;;7.65;71.94;98121.59;5033195;28;20435;-86
2021/03/13 01:45:06;;;;;;;9.00;2.45;;;;;;;7.64;71.68;98114.69;5033396;28;20049;-87
2021/03/13 01:47:33;;;;;;;8.73;2.40;;;;;;;7.66;72.07;98112.78;5033823;28;20059;-86
2021/03/13 01:50:00;;;;;;;11.57;3.03;;;;;;;7.65;71.81;98105.03;5034152;28;20523;-86
2021/03/13 01:52:26;;;;;;;6.65;2.63;;;;;;;7.67;72.12;98101.38;5033163;28;20072;-86
2021/03/13 01:54:52;;;;;;;8.80;2.75;;;;;;;7.67;71.88;98085.66;5034054;28;20053;-86
2021/03/13 01:57:19;;;;;;;9.15;2.85;;;;;;;7.68;71.77;98087.34;5032729;28;20049;-86
2021/03/13 01:59:46;;;;;;;8.18;2.40;;;;;;;7.70;72.09;98074.13;5033510;28;20045;-87
2021/03/13 02:02:14;;;;;;;10.95;3.35;;;;;;;7.69;71.58;98078.53;5033160;28;20049;-88
2021/03/13 02:04:41;;;;;;;12.93;2.30;;;;;;;7.70;71.82;98076.75;5033446;28;20057;-88
2021/03/13 02:07:24;;;;;;;6.03;2.22;;;;;;;7.70;70.47;98061.03;5033640;28;20060;-87
2021/03/13 02:10:01;;;;;;;8.65;2.55;;;;;;;7.72;70.46;98060.91;5033692;28;20056;-87
2021/03/13 02:12:40;;;;;;;10.85;2.30;;;;;;;7.73;70.09;98065.22;5033586;28;20511;-87
2021/03/13 02:15:11;;;;;;;7.63;2.50;;;;;;;7.78;71.85;98050.00;5032554;28;20053;-87
2021/03/13 02:17:42;;;;;;;11.50;2.78;;;;;;;7.79;71.74;98041.19;5032712;28;20404;-87
2021/03/13 02:20:34;;;;;;;10.15;3.05;;;;;;;7.77;70.39;98036.06;5033738;28;20065;-88
2021/03/13 02:23:02;;;;;;;10.05;1.92;;;;;;;7.82;72.11;98031.31;5032595;28;20056;-87
2021/03/13 02:25:58;;;;;;;16.10;3.40;;;;;;;7.77;70.08;98017.72;5032006;28;20049;-88
2021/03/13 02:28:35;;;;;;;9.63;2.70;;;;;;;7.83;71.11;98005.97;5033026;28;20048;-87
2021/03/13 02:31:02;;;;;;;10.98;2.67;;;;;;;7.85;71.39;97988.34;5032500;28;20049;-88
2021/03/13 02:33:33;;;;;;;11.98;3.33;;;;;;;7.84;71.03;97993.72;5033890;28;20049;-87
2021/03/13 02:36:06;;;;;;;16.83;3.15;;;;;;;7.84;70.48;97997.16;5033196;28;20072;-88
2021/03/13 02:38:42;;;;;;;6.95;2.35;;;;;;;7.87;71.30;97988.22;5032458;28;20060;-88
2021/03/13 02:41:16;;;;;;;10.68;2.70;;;;;;;7.88;71.12;97977.63;5033344;28;20045;-86
2021/03/13 02:43:48;;;;;;;11.73;2.85;;;;;;;7.90;71.40;97973.13;5031290;28;20508;-86
2021/03/13 02:46:18;;;;;;;16.45;3.10;;;;;;;7.92;71.79;97973.84;5032345;28;20443;-87
2021/03/13 02:48:47;;;;;;;7.85;2.33;;;;;;;7.93;71.85;97959.78;5033192;28;20496;-87
2021/03/13 02:51:19;;;;;;;10.27;2.70;;;;;;;7.94;70.67;97965.88;5033412;28;20412;-87
2021/03/13 02:53:47;;;;;;;9.05;3.03;;;;;;;7.97;71.42;97949.09;5033761;28;20057;-87
2021/03/13 02:56:14;;;;;;;9.38;3.17;;;;;;;7.98;71.72;97945.50;5036923;28;20492;-87
2021/03/13 02:58:43;;;;;;;14.18;3.15;;;;;;;8.01;71.84;97938.28;5035887;28;20057;-86
2021/03/13 03:01:10;;;;;;;9.15;3.58;;;;;;;8.05;71.87;97938.84;5037362;28;20469;-88
2021/03/13 03:03:39;;;;;;;9.82;4.03;;;;;;;8.04;71.58;97924.09;5035441;28;20053;-87
2021/03/13 03:06:06;;;;;;;13.48;4.93;;;;;;;8.04;71.52;97916.25;5037037;28;20046;-87
2021/03/13 03:08:38;;;;;;;11.65;5.32;;;;;;;8.06;71.61;97919.56;5035984;28;20046;-87
2021/03/13 03:11:05;;;;;;;17.35;6.13;;;;;;;8.04;71.58;97917.06;5036320;28;20048;-87
2021/03/13 03:13:33;;;;;;;14.70;5.95;;;;;;;8.04;71.48;97908.38;5035781;28;20049;-87
2021/03/13 03:16:01;;;;;;;14.75;6.55;;;;;;;8.04;71.35;97917.06;5036688;28;20053;-87
2021/03/13 03:18:27;;;;;;;15.70;7.38;;;;;;;8.04;71.15;97908.38;5035307;28;20053;-87
2021/03/13 03:20:55;;;;;;;12.50;7.53;;;;;;;8.04;71.14;97901.31;5036693;28;20513;-87
2021/03/13 03:23:22;;;;;;;14.43;6.53;;;;;;;8.04;71.63;97897.91;5035515;28;20054;-87
2021/03/13 03:25:55;;;;;;;15.73;7.35;;;;;;;8.03;69.80;97896.19;5060862;23;20496;-83
2021/03/13 03:28:22;;;;;;;12.60;6.05;;;;;;;8.05;71.25;97895.16;5016908;28;20527;-82
2021/03/13 03:30:49;;;;;;;10.38;5.55;;;;;;;8.06;71.06;97896.81;5016825;28;20492;-84
2021/03/13 03:33:15;;;;;;;12.10;5.20;;;;;;;8.05;71.39;97879.44;5016110;28;20049;-83
2021/03/13 03:35:43;;;;;;;11.45;5.10;;;;;;;8.04;71.00;97872.50;5001799;28;20472;-83
2021/03/13 03:38:11;;;;;;;10.93;5.40;;;;;;;8.03;71.12;97865.59;4997402;28;20424;-83
2021/03/13 03:40:39;;;;;;;12.75;6.40;;;;;;;7.98;70.87;97859.88;4995810;28;20049;-83
2021/03/13 03:43:43;;;;;;;9.57;6.85;;;;;;;7.88;70.25;97865.00;4997232;28;20046;-83
2021/03/13 03:46:12;;;;;;;12.52;8.00;;;;;;;7.85;71.46;97844.25;4944590;28;20118;-83
2021/03/13 03:48:39;;;;;;;11.23;7.05;;;;;;;7.82;71.33;97847.16;4971351;28;20057;-84
2021/03/13 03:51:13;;;;;;;9.50;7.97;;;;;;;7.74;71.47;97841.66;4976258;28;20046;-83
2021/03/13 03:53:41;;;;;;;9.40;7.43;;;;;;;7.73;71.94;97842.63;4978064;28;20054;-83
2021/03/13 03:56:08;;;;;;;10.00;8.48;;;;;;;7.67;72.03;97831.63;4976315;28;20055;-82
2021/03/13 03:58:39;;;;;;;10.55;8.10;;;;;;;7.63;72.15;97811.88;4977214;28;20058;-83
2021/03/13 04:01:07;;;;;;;18.67;9.32;;;;;;;7.59;72.35;97826.13;4994329;28;20165;-84
2021/03/13 04:03:37;;;;;;;12.73;10.00;;;;;;;7.54;72.64;97823.03;4997195;28;20055;-83
2021/03/13 04:06:07;;;;;;;13.70;10.20;;;;;;;7.48;72.96;97807.81;4995361;28;20055;-83
2021/03/13 04:08:36;;;;;;;12.38;9.00;;;;;;;7.46;72.96;97791.38;4996870;28;20081;-83
2021/03/13 04:11:02;;;;;;;11.25;9.63;;;;;;;7.41;73.08;97789.94;4997103;28;20086;-83
2021/03/13 04:13:28;;;;;;;9.68;8.65;;;;;;;7.39;73.51;97776.16;4990643;28;20053;-83
2021/03/13 04:15:55;;;;;;;14.98;8.77;;;;;;;7.34;73.79;97778.28;4983919;28;20411;-83
2021/03/13 04:18:21;;;;;;;9.98;8.70;;;;;;;7.28;73.79;97770.88;4996878;28;20527;-83
2021/03/13 04:20:50;;;;;;;9.20;8.10;;;;;;;7.25;73.75;97755.44;4996633;28;20056;-84
2021/03/13 04:23:20;;;;;;;11.77;7.85;;;;;;;7.25;73.98;97742.34;4996626;28;20065;-83
2021/03/13 04:25:50;;;;;;;13.13;8.07;;;;;;;7.23;74.54;97731.16;4995807;28;20416;-83
2021/03/13 04:28:16;;;;;;;10.65;7.35;;;;;;;7.22;74.62;97734.72;4981551;28;20055;-83
2021/03/13 04:30:43;;;;;;;8.90;7.15;;;;;;;7.19;74.33;97722.69;4976983;28;20042;-83
2021/03/13 04:33:15;;;;;;;9.32;6.65;;;;;;;7.17;74.61;97717.59;4977089;28;20405;-84
2021/03/13 04:35:42;;;;;;;10.68;6.70;;;;;;;7.16;74.64;97718.53;4976354;28;20452;-83
2021/03/13 04:38:10;;;;;;;8.23;5.93;;;;;;;7.16;74.97;97695.00;4976581;28;20054;-83
2021/03/13 04:40:36;;;;;;;7.88;5.95;;;;;;;7.16;74.91;97702.00;4976523;28;20177;-82
2021/03/13 04:43:03;;;;;;;8.43;6.32;;;;;;;7.15;75.00;97687.25;4995605;28;20055;-83
2021/03/13 04:45:30;;;;;;;9.88;6.70;;;;;;;7.14;75.29;97702.09;4995918;28;20078;-83
2021/03/13 04:47:57;;;;;;;9.77;7.07;;;;;;;7.13;75.15;97684.75;4996040;28;20077;-83
2021/03/13 04:50:23;;;;;;;10.77;7.30;;;;;;;7.13;75.03;97673.44;4995017;28;20057;-83
2021/03/13 04:52:50;;;;;;;9.48;6.53;;;;;;;7.10;75.25;97661.44;4996191;28;20492;-83
2021/03/13 04:55:17;;;;;;;11.82;7.70;;;;;;;7.09;75.14;97641.47;4986923;28;20059;-82
2021/03/13 04:57:43;;;;;;;8.70;6.40;;;;;;;7.10;75.59;97639.69;4976591;28;20050;-82
2021/03/13 05:00:12;;;;;;;11.02;7.15;;;;;;;7.09;75.61;97641.47;4976611;28;20058;-82
2021/03/13 05:02:39;;;;;;;9.38;6.88;;;;;;;7.10;75.76;97627.41;4976475;28;20109;-82
2021/03/13 05:05:06;;;;;;;12.40;7.72;;;;;;;7.11;75.85;97617.81;4976116;28;20077;-83
2021/03/13 05:07:33;;;;;;;10.40;6.85;;;;;;;7.12;75.86;97632.53;4976563;28;20489;-82
2021/03/13 05:09:59;;;;;;;9.80;7.75;;;;;;;7.10;75.86;97627.41;4988449;28;20043;-82
2021/03/13 05:12:25;;;;;;;9.35;7.07;;;;;;;7.12;75.87;97609.84;4995841;28;20081;-82
2021/03/13 05:14:51;;;;;;;9.73;7.57;;;;;;;7.13;75.85;97590.56;4994946;28;20046;-82
2021/03/13 05:17:17;;;;;;;12.18;7.35;;;;;;;7.12;76.01;97596.75;4995263;28;20118;-82
2021/03/13 05:19:43;;;;;;;9.05;6.90;;;;;;;7.11;76.02;97584.59;4995457;28;20093;-83
2021/03/13 05:22:10;;;;;;;8.70;6.85;;;;;;;7.10;76.17;97574.28;4994825;28;20050;-81
2021/03/13 05:24:36;;;;;;;11.05;6.32;;;;;;;7.12;76.56;97554.91;4992005;28;20054;-83
2021/03/13 05:27:03;;;;;;;10.02;6.75;;;;;;;7.12;76.15;97554.91;4975667;28;20058;-82
2021/03/13 05:29:30;;;;;;;5.68;5.07;;;;;;;7.13;76.51;97540.84;4976246;28;20046;-84
2021/03/13 05:31:56;;;;;;;7.30;5.40;;;;;;;7.15;76.41;97522.44;4976080;28;20062;-83
2021/03/13 05:34:22;;;;;;;7.95;6.05;;;;;;;7.16;76.47;97527.53;4974409;28;20090;-84
2021/03/13 05:36:48;;;;;;;8.43;5.07;;;;;;;7.17;76.75;97518.72;4979933;28;20508;-84
2021/03/13 05:39:14;;;;;;;10.40;5.63;;;;;;;7.16;76.80;97501.38;4995067;28;20054;-84
2021/03/13 05:41:42;;;;;;;7.88;5.32;;;;;;;7.18;76.79;97493.41;4994656;28;20054;-84
2021/03/13 05:44:08;;;;;;;9.10;4.28;;;;;;;7.17;76.94;97497.78;4994716;28;20053;-84
2021/03/13 05:46:38;;;;;;;8.40;5.03;;;;;;;7.15;77.09;97486.59;4995634;28;20440;-84
2021/03/13 05:49:06;;;;;;;10.65;5.60;;;;;;;7.17;77.02;97491.72;4994196;28;20082;-84
2021/03/13 05:51:37;;;;;;;6.82;5.00;;;;;;;7.15;77.11;97470.91;4981646;28;20057;-82
2021/03/13 05:54:05;;;;;;;6.15;4.93;;;;;;;7.18;76.92;97480.31;4975209;28;20057;-82
2021/03/13 05:56:32;;;;;;;6.85;4.50;;;;;;;7.20;76.62;97467.94;4975641;28;20054;-83
2021/03/13 05:58:59;;;;;;;4.32;3.83;;;;;;;7.22;76.57;97439.03;4975036;28;20054;-83
2021/03/13 06:01:27;;;;;;;6.75;3.65;;;;;;;7.22;76.98;97441.66;4975249;28;20055;-82
2021/03/13 06:03:54;;;;;;;6.25;4.30;;;;;;;7.22;76.82;97426.75;4974545;28;20051;-82
2021/03/13 06:06:22;;;;;;;5.85;4.25;;;;;;;7.21;76.69;97427.72;4991535;28;20492;-82
2021/03/13 06:08:49;;;;;;;6.15;4.50;;;;;;;7.20;76.77;97433.06;4975229;28;20047;-83
2021/03/13 06:11:20;;;;;;;5.47;4.15;;;;;;;7.20;76.91;97415.59;4974230;28;20057;-84
2021/03/13 06:13:47;;;;;;;5.25;3.95;;;;;;;7.23;76.82;97404.06;4975477;28;20398;-82
2021/03/13 06:16:14;;;;;;;5.05;3.42;;;;;;;7.23;76.84;97404.06;4975037;28;20055;-84
2021/03/13 06:19:00;;;;;;;6.32;3.42;;;;;;;7.19;76.93;97416.56;4974009;28;20138;-83
2021/03/13 06:21:31;;;;;;;5.35;3.75;;;;;;;7.24;76.83;97384.78;4974551;28;20046;-83
2021/03/13 06:24:24;;;;;;;3.65;3.30;;;;;;;7.23;77.07;97380.50;4973487;28;20066;-83
2021/03/13 06:26:55;;;;;;;3.30;3.00;;;;;;;7.27;77.26;97372.28;4974664;28;20047;-82
2021/03/13 06:29:22;;;;;;;5.30;3.13;;;;;;;7.28;77.21;97371.34;4974705;28;20401;-85
2021/03/13 06:32:13;;;;;;;2.92;2.63;;;;;;;7.27;76.95;97361.81;4973762;28;20501;-84
2021/03/13 06:35:21;;;;;;;4.60;2.93;;;;;;;7.26;77.49;97347.06;4974671;28;20109;-84
2021/03/13 06:37:49;;;;;;;3.60;2.58;;;;;;;7.29;77.49;97343.38;4990547;28;20324;-84
2021/03/13 06:40:33;;;;;;;7.50;2.42;;;;;;;7.27;77.33;97345.28;4994018;28;20050;-84
2021/03/13 06:43:16;;;;;;;4.88;2.70;;;;;;;7.29;77.29;97338.97;4994452;28;20065;-85
2021/03/13 06:46:01;;;;;;;3.38;2.60;;;;;;;7.27;77.38;97311.28;4992802;28;20074;-84
2021/03/13 06:48:40;;;;;;;5.20;2.80;;;;;;;7.26;77.71;97307.00;4994460;28;20064;-84
2021/03/13 06:51:37;;;;;;;5.72;2.20;;;;;;;7.28;77.73;97312.91;4981712;28;20055;-84
2021/03/13 06:54:14;;;;;;;4.70;2.38;;;;;;;7.32;77.85;97308.28;4966266;28;20055;-84
2021/03/13 06:56:56;;;;;;;3.25;2.42;;;;;;;7.33;77.81;97318.59;4973560;28;20162;-84
2021/03/13 06:59:33;;;;;;;4.33;2.57;;;;;;;7.33;77.78;97307.31;4973836;28;20054;-85
2021/03/13 07:02:12;;;;;;;3.88;2.55;;;;;;;7.36;77.54;97307.06;4974596;28;20421;-83
2021/03/13 07:04:43;;;;;;;3.70;2.78;;;;;;;7.41;77.71;97295.22;4984239;28;20051;-83
2021/03/13 07:07:11;;;;;;;6.03;3.15;;;;;;;7.44;78.16;97275.81;4992910;28;20051;-83
2021/03/13 07:09:58;;;;;;;3.83;2.70;;;;;;;7.41;77.84;97290.00;4993575;28;20065;-84
2021/03/13 07:12:26;;;;;;;4.18;2.63;;;;;;;7.51;77.87;97278.78;4993942;28;20133;-83
2021/03/13 07:14:55;;;;;;;2.95;2.38;;;;;;;7.53;78.09;97267.22;4992532;28;20057;-83
2021/03/13 07:17:23;;;;;;;7.38;3.10;;;;;;;7.55;78.11;97269.69;4990907;28;20163;-83
2021/03/13 07:19:50;;;;;;;3.85;2.70;;;;;;;7.59;77.96;97270.28;4974956;28;20051;-83
2021/03/13 07:22:17;;;;;;;3.85;2.70;;;;;;;7.61;78.25;97245.63;4989205;28;20101;-83
2021/03/13 07:24:44;;;;;;;4.75;2.90;;;;;;;7.64;78.05;97237.50;4973950;28;20057;-84
2021/03/13 07:27:11;;;;;;;4.28;2.80;;;;;;;7.68;77.66;97227.59;4973798;28;20058;-83
2021/03/13 07:29:45;;;;;;;5.45;3.10;;;;;;;7.66;77.57;97232.09;4974331;28;20065;-84
2021/03/13 07:32:15;;;;;;;6.40;3.65;;;;;;;7.69;77.64;97230.06;4989175;28;20497;-84
2021/03/13 07:34:42;;;;;;;4.95;3.53;;;;;;;7.75;77.90;97201.69;4975151;28;20055;-84
2021/03/13 07:37:14;;;;;;;4.90;3.28;;;;;;;7.78;77.80;97217.97;4985331;28;20055;-84
2021/03/13 07:39:49;;;;;;;7.30;3.72;;;;;;;7.76;77.68;97208.59;4994639;28;20050;-84
2021/03/13 07:42:19;;;;;;;4.82;3.42;;;;;;;7.81;78.03;97212.47;4997433;28;20050;-84
2021/03/13 07:44:47;;;;;;;7.85;4.05;;;;;;;7.84;78.10;97218.41;4997035;28;20050;-84
2021/03/13 07:47:15;;;;;;;7.85;4.18;;;;;;;7.84;77.35;97258.50;4996263;28;20050;-84
2021/03/13 07:49:42;;;;;;;5.30;3.72;;;;;;;7.89;77.71;97281.69;4997256;28;20139;-84
2021/03/13 07:52:10;;;;;;;6.32;4.25;;;;;;;7.89;77.66;97342.75;4980674;28;20046;-83
2021/03/13 07:54:42;;;;;;;5.05;3.00;;;;;;;7.95;77.34;97347.50;4975898;28;20051;-83
2021/03/13 07:57:14;;;;;;;3.60;1.57;;;;;;;7.94;73.30;97364.19;4976413;28;20063;-84
2021/03/13 07:59:42;;;;;;;1.02;0.80;;;;;;;7.82;71.28;97352.13;4976139;28;20050;-83
2021/03/13 08:02:08;;;;;;;1.05;0.90;;;;;;;7.60;71.42;97327.75;4977202;28;20062;-83
2021/03/13 08:04:37;;;;;;;1.55;1.15;;;;;;;7.33;72.22;97315.97;4976935;28;20129;-84
2021/03/13 08:07:07;;;;;;;1.55;0.93;;;;;;;7.15;73.31;97319.16;4984025;28;20053;-84
2021/03/13 08:09:41;;;;;;;2.60;0.95;;;;;;;6.96;73.71;97316.41;4996564;28;20529;-85
2021/03/13 08:12:07;;;;;;;2.67;0.93;;;;;;;6.86;74.98;97317.16;4995706;28;20078;-84
2021/03/13 08:14:35;;;;;;;2.75;1.17;;;;;;;6.80;75.62;97322.88;4996316;28;20046;-85
2021/03/13 08:17:06;;;;;;;2.50;0.93;;;;;;;6.77;76.13;97339.66;4997071;28;20054;-85
2021/03/13 08:19:36;;;;;;;1.50;0.90;;;;;;;6.78;76.62;97324.81;4996875;28;20061;-85
2021/03/13 08:22:21;;;;;;;2.45;1.10;;;;;;;6.78;76.04;97345.72;4995658;28;20055;-85
2021/03/13 08:24:54;;;;;;;2.70;1.20;;;;;;;6.85;76.75;97357.34;4978698;28;20054;-84
2021/03/13 08:27:32;;;;;;;2.63;1.40;;;;;;;6.90;77.16;97325.59;4994097;28;20543;-85
2021/03/13 08:30:00;;;;;;;2.75;1.25;;;;;;;7.00;78.06;97328.28;4996495;28;20058;-84
2021/03/13 08:32:57;;;;;;;4.40;1.48;;;;;;;7.08;77.11;97340.72;4996417;28;20052;-85
2021/03/13 08:35:34;;;;;;;8.35;2.20;;;;;;;7.14;75.06;97340.25;4995761;28;20085;-84
2021/03/13 08:38:01;;;;;;;6.53;3.78;;;;;;;7.30;77.85;97318.88;4996315;28;20125;-85
2021/03/13 08:40:28;;;;;;;5.20;1.40;;;;;;;7.43;77.68;97319.50;4981853;28;20135;-85
2021/03/13 08:42:54;;;;;;;4.32;1.70;;;;;;;7.52;76.89;97324.94;4976782;28;20054;-85
2021/03/13 08:45:23;;;;;;;10.00;1.77;;;;;;;7.60;76.72;97329.53;4974966;28;20059;-85
2021/03/13 08:47:53;;;;;;;7.55;1.80;;;;;;;7.67;75.85;97341.16;4975492;28;20050;-85
2021/03/13 08:50:45;;;;;;;4.97;1.45;;;;;;;7.71;75.13;97342.56;4976419;28;20043;-86
2021/03/13 08:53:34;;;;;;;11.95;1.80;;;;;;;7.79;73.58;97328.78;4974576;28;20057;-85
2021/03/13 08:56:24;;;;;;;8.18;1.70;;;;;;;7.85;75.24;97353.66;4976116;28;20043;-84
2021/03/13 08:58:52;;;;;;;7.13;1.52;;;;;;;7.92;74.93;97365.25;4986387;28;20050;-85
2021/03/13 09:01:23;;;;;;;9.82;1.80;;;;;;;7.93;74.53;97335.50;4995895;28;20046;-85
2021/03/13 09:03:51;;;;;;;4.85;1.60;;;;;;;7.95;74.50;97344.88;4995598;28;20105;-82
2021/03/13 09:06:39;;;;;;;8.10;1.30;;;;;;;8.01;73.95;97347.91;4995981;28;20054;-82
2021/03/13 09:09:15;;;;;;;6.65;1.70;;;;;;;8.03;72.88;97319.78;4994828;28;20137;-82
2021/03/13 09:11:54;;;;;;;9.02;2.08;;;;;;;8.07;71.63;97332.50;4993971;28;20444;-83
2021/03/13 09:14:20;;;;;;;10.02;2.03;;;;;;;8.15;73.03;97354.63;4994016;28;20050;-83
2021/03/13 09:16:46;;;;;;;6.57;1.90;;;;;;;8.21;73.72;97333.94;4995526;28;20072;-82
2021/03/13 09:19:14;;;;;;;6.82;1.83;;;;;;;8.30;73.98;97327.06;4995587;28;20464;-82
2021/03/13 09:21:46;;;;;;;13.32;2.15;;;;;;;8.32;69.41;97321.69;4994235;28;20061;-82
2021/03/13 09:24:22;;;;;;;7.13;1.60;;;;;;;8.38;72.09;97313.31;4994140;28;20057;-82
2021/03/13 09:26:52;;;;;;;12.38;2.03;;;;;;;8.46;72.59;97316.06;5035212;23;20313;-87
2021/03/13 09:29:34;;;;;;;11.15;1.63;;;;;;;8.47;69.94;97304.63;4993566;28;20061;-87
2021/03/13 09:32:05;;;;;;;12.27;2.80;;;;;;;8.51;71.22;97317.44;4994018;28;20072;-87
2021/03/13 09:34:34;;;;;;;6.80;1.90;;;;;;;8.52;71.89;97314.69;4993738;28;20050;-87
2021/03/13 09:37:13;;;;;;;7.30;1.75;;;;;;;8.53;70.49;97332.13;4995008;28;20083;-87
2021/03/13 09:39:47;;;;;;;15.82;2.28;;;;;;;8.55;71.00;97326.72;4993939;28;20055;-87
2021/03/13 09:42:22;;;;;;;8.73;1.90;;;;;;;8.55;71.10;97327.56;4994927;28;20065;-87
2021/03/13 09:45:13;;;;;;;7.70;1.88;;;;;;;8.55;70.53;97321.50;4993020;28;20046;-87
2021/03/13 09:47:47;;;;;;;14.45;2.35;;;;;;;8.55;71.54;97327.56;4993443;28;20055;-87
2021/03/13 09:50:25;;;;;;;10.35;2.22;;;;;;;8.53;69.38;97312.94;4993495;28;20195;-87
2021/03/13 09:52:52;;;;;;;15.35;2.75;;;;;;;8.57;71.81;97316.97;4994868;28;20058;-89
2021/03/13 09:55:23;;;;;;;10.57;2.20;;;;;;;8.58;69.02;97308.13;4993352;28;20054;-89
2021/03/13 09:57:52;;;;;;;8.38;2.25;;;;;;;8.62;70.86;97324.41;4994333;28;20058;-88
2021/03/13 10:00:22;;;;;;;10.40;2.13;;;;;;;8.64;70.80;97304.97;4994531;28;20049;-89
2021/03/13 10:02:49;;;;;;;16.55;2.80;;;;;;;8.67;71.10;97309.09;4994055;28;20050;-89
2021/03/13 10:05:18;;;;;;;12.05;1.77;;;;;;;8.67;70.51;97299.44;4992974;28;20066;-89
2021/03/13 10:07:47;;;;;;;13.05;2.97;;;;;;;8.66;70.25;97281.19;4993532;28;20050;-89
2021/03/13 10:10:15;;;;;;;11.10;1.90;;;;;;;8.68;70.14;97276.66;4993524;28;20043;-89
2021/03/13 10:12:44;;;;;;;15.80;2.38;;;;;;;8.72;70.45;97284.09;4993499;28;20050;-88
2021/03/13 10:15:13;;;;;;;9.63;2.20;;;;;;;8.79;70.41;97304.56;4993887;28;20073;-88
2021/03/13 10:17:50;;;;;;;12.30;2.63;;;;;;;8.84;66.86;97286.59;4993337;28;20053;-89
2021/03/13 10:20:17;;;;;;;8.98;2.38;;;;;;;8.99;71.27;97272.13;4992917;28;20046;-89
2021/03/13 10:22:43;;;;;;;8.40;1.80;;;;;;;9.05;70.26;97262.84;4993303;28;20046;-89
2021/03/13 10:25:10;;;;;;;9.07;1.90;;;;;;;9.14;68.00;97261.19;4993775;28;20057;-88
2021/03/13 10:27:36;;;;;;;13.98;2.85;;;;;;;9.24;68.61;97255.91;4994420;28;20493;-89
2021/03/13 10:30:08;;;;;;;8.43;1.83;;;;;;;9.30;66.69;97273.72;4993200;28;20416;-89
2021/03/13 10:32:37;;;;;;;11.50;2.70;;;;;;;9.33;65.10;97262.09;4993764;28;20057;-89
2021/03/13 10:35:19;;;;;;;8.85;2.30;;;;;;;9.38;65.39;97244.97;4992739;28;20054;-89
2021/03/13 10:37:52;;;;;;;11.95;2.10;;;;;;;9.52;69.15;97269.09;4992949;28;20050;-90
2021/03/13 10:40:44;;;;;;;17.92;2.13;;;;;;;9.56;64.40;97259.13;4993022;28;20057;-88
2021/03/13 10:43:25;;;;;;;6.05;1.98;;;;;;;9.65;66.16;97255.69;4993050;28;20054;-88
2021/03/13 10:45:57;;;;;;;11.02;2.72;;;;;;;9.76;64.91;97323.78;4993905;28;20421;-88
2021/03/13 10:48:23;;;;;;;10.38;2.00;;;;;;;9.87;66.84;97277.31;4992364;28;20050;-89
2021/03/13 10:50:50;;;;;;;13.85;2.15;;;;;;;9.93;66.38;97286.38;4994126;28;20047;-89
2021/03/13 10:53:37;;;;;;;12.65;2.65;;;;;;;10.00;63.54;97272.53;4993837;28;20497;-89
2021/03/13 10:56:06;;;;;;;13.15;2.20;;;;;;;10.10;66.93;97292.69;4993468;28;20050;-89
2021/03/13 10:58:34;;;;;;;11.80;2.42;;;;;;;10.17;66.40;97280.63;4992601;28;20061;-88
2021/03/13 11:01:03;;;;;;;11.45;2.30;;;;;;;10.17;65.29;97284.06;4989315;28;20129;-88
2021/03/13 11:03:29;;;;;;;10.38;2.63;;;;;;;10.18;65.30;97279.66;4991771;28;20053;-88
2021/03/13 11:05:56;;;;;;;12.60;2.38;;;;;;;10.22;65.00;97275.75;4990555;28;20170;-88
2021/03/13 11:08:25;;;;;;;16.08;2.38;;;;;;;10.29;66.23;97258.38;4993644;28;20133;-89
2021/03/13 11:10:53;;;;;;;11.60;2.38;;;;;;;10.37;67.04;97262.09;4993639;28;20412;-88
2021/03/13 11:13:20;;;;;;;14.10;2.28;;;;;;;10.47;66.46;97262.06;4992470;28;20051;-88
2021/03/13 11:15:46;;;;;;;12.13;2.45;;;;;;;10.57;66.01;97267.25;4995487;28;20408;-89
2021/03/13 11:18:15;;;;;;;13.55;2.60;;;;;;;10.65;66.71;97272.59;4995013;28;20510;-88
2021/03/13 11:20:42;;;;;;;13.65;2.45;;;;;;;10.74;65.90;97255.06;4995534;28;20519;-88
2021/03/13 11:23:09;;;;;;;10.38;2.50;;;;;;;10.75;64.72;97269.88;4996622;28;20047;-88
2021/03/13 11:25:36;;;;;;;11.85;2.10;;;;;;;10.77;64.13;97283.72;4994802;28;20057;-88
2021/03/13 11:28:03;;;;;;;13.38;2.50;;;;;;;10.74;63.93;97278.75;4996822;28;20636;-88
2021/03/13 11:30:30;;;;;;;17.25;2.95;;;;;;;10.72;62.75;97281.53;4996823;28;20042;-88
2021/03/13 11:32:56;;;;;;;8.82;2.05;;;;;;;10.72;65.01;97281.53;4996503;28;20086;-88
2021/03/13 11:35:23;;;;;;;10.55;2.53;;;;;;;10.67;64.82;97287.25;4996324;28;20054;-88
2021/03/13 11:37:50;;;;;;;8.82;1.85;;;;;;;10.60;64.77;97299.34;4995685;28;20057;-88
2021/03/13 11:40:17;;;;;;;9.32;2.45;;;;;;;10.49;64.19;97296.91;4996340;28;20049;-89
2021/03/13 11:42:43;;;;;;;8.85;1.80;;;;;;;10.36;64.46;97320.91;4995212;28;20129;-89
2021/03/13 11:45:14;;;;;;;6.05;1.50;;;;;;;10.19;64.23;97315.47;4996024;28;20085;-89
2021/03/13 11:47:41;;;;;;;7.28;1.58;;;;;;;10.02;65.42;97323.13;4995019;28;20054;-89
2021/03/13 11:50:11;;;;;;;7.57;1.50;;;;;;;9.82;65.33;97338.16;4996253;28;20117;-89
2021/03/13 11:52:38;;;;;;;8.60;1.75;;;;;;;9.60;64.99;97347.19;4995148;28;20412;-89